Terminal Aerodrome Forecast
Issued by NWS

Home | Current Version | Previous Version | Text Only | Print | Product List | Glossary On
Versions: 1 2 3 4 5 6 7 8 9 10 11 12 13 14 15 16 17 18 19
884
FTUS44 KJAN 171721
TAFHKS
TAF
KHKS 171721Z 1718/1818 22008KT P6SM VCSH BKN025
     FM171900 23006KT P6SM VCSH BKN035
     FM180000 VRB03KT P6SM OVC015
     FM180500 18003KT 6SM BR OVC007
     FM180700 16003KT 4SM BR OVC003
     FM181600 12005KT P6SM OVC007=

USA.gov is the U.S. government's official web portal to all federal, state and local government web resources and services.